Flight Track Log - Related Links

Times and Time Zones

All times are in EDT time to prevent confusion due to time zone crossing. See the EJA831 flight status page for this flight to view local times or setup timezone preferences in your user account.

Time Position Orientation Groundspeed Altitude Reporting Facility
EDT Latitude Longitude Course Direction KTS MPH feet Rate Location/Type
Fri 11:15:06 AM 43.8578 -92.5272 90° East 176 203 4,900  Level Minneapolis Center
Fri 11:16:20 AM 43.8008 -92.4772 148° Southeast 263 303 8,600 3,285 Climbing Minneapolis Center
Fri 11:17:23 AM 43.8133 -92.3281 83° East 325 374 12,400 3,216 Climbing Minneapolis Center
Fri 11:18:25 AM 43.8114 -92.1933 91° East 363 418 15,300 2,878 Climbing Minneapolis Center
Fri 11:19:26 AM 43.7928 -92.0400 99° East 375 432 18,300 2,585 Climbing Minneapolis Center
Fri 11:20:00 AM 43.9000 -92.3429 90° East  Level FlightAware Approximate
Fri 11:20:28 AM 43.7764 -91.9069 100° East 389 448 20,600  Level Minneapolis Center
Fri 11:21:30 AM 43.7569 -91.7575 100° East 395 455 23,000 2,468 Climbing Minneapolis Center
Fri 11:22:32 AM 43.7350 -91.5733 99° East 404 465 25,700 2,323 Climbing Minneapolis Center
Fri 11:23:34 AM 43.7150 -91.4186 100° East 406 467 27,800 1,597 Climbing Minneapolis Center
Fri 11:24:36 AM 43.6942 -91.2611 100° East 412 474 29,000 871 Climbing Minneapolis Center
Fri 11:25:38 AM 43.6719 -91.0881 100° East 443 510 29,600 774 Climbing Minneapolis Center
Fri 11:26:40 AM 43.6483 -90.9114 100° East 465 535 30,600 968 Climbing Minneapolis Center
Fri 11:27:42 AM 43.6303 -90.7697 100° East 469 540 31,600 1,355 Climbing Minneapolis Center
Fri 11:28:44 AM 43.5969 -90.5222 100° East 471 542 33,400 1,500 Climbing Minneapolis Center
Fri 11:29:46 AM 43.5714 -90.3467 101° East 470 541 34,700 1,306 Climbing Minneapolis Center
Fri 11:30:48 AM 43.5458 -90.1589 101° East 464 534 36,100 1,306 Climbing Minneapolis Center
Fri 11:31:50 AM 43.5211 -89.9878 101° East 456 525 37,400 1,258 Climbing Minneapolis Center
Fri 11:32:52 AM 43.4967 -89.8169 101° East 455 524 38,700 1,132 Climbing Minneapolis Center
Fri 11:33:36 AM 43.4797 -89.7072 102° East 448 516 39,400 914 Climbing Chicago Center
Fri 11:34:37 AM 43.4558 -89.5436 101° East 438 504 40,300 780 Climbing Chicago Center
Fri 11:35:39 AM 43.4283 -89.3536 101° East 433 498 41,000 336 Climbing Chicago Center
Fri 11:36:42 AM 43.4039 -89.1869 101° East 442 509 41,000  Level Chicago Center
Fri 11:37:43 AM 43.3775 -89.0150 102° East 455 524 41,000  Level Chicago Center
Fri 11:38:45 AM 43.3508 -88.8400 102° East 465 535 41,000  Level Chicago Center
Fri 11:39:47 AM 43.3236 -88.6631 102° East 475 547 41,000  Level Chicago Center
Fri 11:40:49 AM 43.2914 -88.4575 102° East 481 554 41,000  Level Chicago Center
Fri 11:41:51 AM 43.2633 -88.2806 102° East 482 555 41,000  Level Chicago Center
Fri 11:42:53 AM 43.2353 -88.1017 102° East 483 556 41,000  Level Chicago Center
Fri 11:43:54 AM 43.2067 -87.9244 102° East 479 551 41,000  Level Chicago Center
Fri 11:44:56 AM 43.1728 -87.7164 103° East 479 551 41,000  Level Chicago Center
Fri 11:45:58 AM 43.1442 -87.5375 102° East 480 552 41,000  Level Chicago Center
Fri 11:47:00 AM 43.1136 -87.3589 103° East 481 554 41,000  Level Chicago Center
Fri 11:48:02 AM 43.0831 -87.1708 102° East 481 554 41,000  Level Chicago Center
Fri 11:49:04 AM 43.0533 -86.9925 103° East 483 556 41,000  Level Chicago Center
Fri 11:50:06 AM 43.0228 -86.8142 103° East 484 557 41,000  Level Chicago Center
Fri 11:51:08 AM 42.9914 -86.6369 104° East 483 556 41,000  Level Chicago Center
Fri 11:52:09 AM 42.9600 -86.4614 104° East 481 554 41,000  Level Chicago Center
Fri 11:53:11 AM 42.9236 -86.2514 103° East 480 552 41,000  Level Chicago Center
Fri 11:54:13 AM 42.8922 -86.0797 104° East 477 549 41,000  Level Chicago Center
Fri 11:55:15 AM 42.8622 -85.9089 103° East 477 549 41,000  Level Chicago Center
Fri 11:56:17 AM 42.8306 -85.7364 104° East 476 548 41,000  Level Chicago Center
Fri 11:57:19 AM 42.7989 -85.5622 104° East 478 550 41,000  Level Chicago Center
Fri 11:58:21 AM 42.7400 -85.3625 112° Southeast 476 548 41,000  Level Chicago Center
Fri 11:59:23 AM 42.6839 -85.2014 115° Southeast 476 548 41,000  Level Chicago Center
Fri 12:00:25 PM 42.6267 -85.0397 116° Southeast 475 547 41,000  Level Chicago Center
Fri 12:01:27 PM 42.5694 -84.8775 116° Southeast 478 550 41,000  Level Chicago Center
Fri 12:02:29 PM 42.5111 -84.7175 116° Southeast 475 547 41,000  Level Chicago Center
Fri 12:03:21 PM 42.4536 -84.5683 118° Southeast 476 548 41,000  Level Cleveland Center
Fri 12:04:21 PM 42.3967 -84.4072 116° Southeast 476 548 41,000  Level Cleveland Center
Fri 12:05:21 PM 42.3372 -84.2464 117° Southeast 476 548 41,000  Level Cleveland Center
Fri 12:06:22 PM 42.2778 -84.0828 116° Southeast 483 556 41,000 250 Level Cleveland Center
Fri 12:07:21 PM 42.2197 -83.9256 116° Southeast 478 550 41,500  Climbing Cleveland Center
Fri 12:08:21 PM 42.1578 -83.7625 117° Southeast 478 550 41,000 -250 Descending Cleveland Center
Fri 12:09:21 PM 42.0917 -83.5856 117° Southeast 485 558 41,000  Level Cleveland Center
Fri 12:10:21 PM 42.0369 -83.4433 117° Southeast 480 552 41,000  Level Cleveland Center
Fri 12:11:21 PM 41.9592 -83.2947 125° Southeast 480 552 41,000  Level Cleveland Center
Fri 12:12:21 PM 41.8753 -83.1347 125° Southeast 486 559 41,000  Level Cleveland Center
Fri 12:13:21 PM 41.7992 -82.9897 125° Southeast 481 554 41,000  Level Cleveland Center
Fri 12:14:21 PM 41.7228 -82.8450 125° Southeast 481 554 41,000  Level Cleveland Center
Fri 12:16:21 PM 41.6625 -82.5011 103° East 463 533 41,000  Level Cleveland Center
Fri 12:17:21 PM 41.6464 -82.3256 97° East 469 540 41,000  Level Cleveland Center
Fri 12:18:21 PM 41.6242 -82.1497 100° East 474 545 41,000  Level Cleveland Center
Fri 12:19:21 PM 41.5508 -82.0036 124° Southeast 464 534 41,000  Level Cleveland Center
Fri 12:20:21 PM 41.4692 -81.8661 128° Southeast 467 537 41,000  Level Cleveland Center
Fri 12:21:21 PM 41.3933 -81.7400 129° Southeast 473 544 41,000  Level Cleveland Center
Fri 12:22:21 PM 41.3156 -81.5978 126° Southeast 478 550 41,000  Level Cleveland Center
Fri 12:23:21 PM 41.2311 -81.4583 129° Southeast 478 550 41,000  Level Cleveland Center
Fri 12:24:21 PM 41.1383 -81.3056 129° Southeast 483 556 41,000  Level Cleveland Center
Fri 12:25:21 PM 41.0706 -81.1561 121° Southeast 477 549 41,000  Level Cleveland Center
Fri 12:26:21 PM 41.0608 -81.0017 95° East 455 524 41,000  Level Cleveland Center
Fri 12:27:21 PM 41.1050 -80.8422 70° East 434 499 41,000  Level Cleveland Center
Fri 12:28:21 PM 41.1742 -80.6853 60° Northeast 423 487 41,000  Level Cleveland Center
Fri 12:29:21 PM 41.2367 -80.5389 60° Northeast 439 505 41,000  Level Cleveland Center
Fri 12:30:21 PM 41.2989 -80.3925 60° Northeast 456 525 41,000  Level Cleveland Center
Fri 12:31:21 PM 41.3592 -80.2567 59° Northeast 456 525 41,000  Level Cleveland Center
Fri 12:32:21 PM 41.4067 -80.0958 68° East 461 531 41,000  Level Cleveland Center
Fri 12:33:21 PM 41.4014 -79.9106 92° East 455 524 41,000  Level Cleveland Center
Fri 12:34:21 PM 41.3856 -79.7308 97° East 460 529 41,000  Level Cleveland Center
Fri 12:35:21 PM 41.3675 -79.5650 98° East 483 556 41,000  Level Cleveland Center
Fri 12:36:21 PM 41.3492 -79.3883 98° East 489 563 41,000  Level Cleveland Center
Fri 12:37:21 PM 41.3306 -79.1978 97° East 484 557 41,000  Level Cleveland Center
Fri 12:38:21 PM 41.3094 -79.0186 99° East 484 557 41,000  Level Cleveland Center
Fri 12:39:21 PM 41.2944 -78.8419 96° East 484 557 41,000 -200 Level Cleveland Center
Fri 12:40:21 PM 41.2747 -78.6631 98° East 484 557 40,600 -1,729 Descending Cleveland Center
Fri 12:42:18 PM 41.2364 -78.3397 99° East 487 560 35,900 -2,441 Descending New York Center
Fri 12:43:18 PM 41.2161 -78.1661 99° East 487 560 33,400 -1,475 Descending New York Center
Fri 12:44:16 PM 41.1956 -77.9903 99° East 482 555 33,000 -203 Descending New York Center
Fri 12:45:16 PM 41.1750 -77.8142 99° East 482 555 33,000 -300 Level New York Center
Fri 12:46:16 PM 41.1519 -77.6383 100° East 482 555 32,400 -1,000 Descending New York Center
Fri 12:47:16 PM 41.1306 -77.4653 99° East 482 555 31,000 -689 Descending New York Center
Fri 12:48:18 PM 41.1014 -77.2750 101° East 482 555 31,000  Level New York Center
Fri 12:49:16 PM 41.0803 -77.0914 99° East 482 555 31,000 -763 Level New York Center
Fri 12:50:16 PM 41.0558 -76.9211 101° East 482 555 29,500 -2,100 Descending New York Center
Fri 12:51:16 PM 41.0311 -76.7539 101° East 472 543 26,800 -2,678 Descending New York Center
Fri 12:52:17 PM 41.0033 -76.6000 103° East 472 543 24,100 -2,607 Descending New York Center
Fri 12:53:18 PM 40.9692 -76.4461 106° East 457 526 21,500 -2,579 Descending New York Center
Fri 12:54:18 PM 40.9328 -76.2864 107° East 426 490 18,900 -2,168 Descending New York Center
Fri 12:55:17 PM 40.8958 -76.1433 109° East 413 475 17,200 -1,550 Descending New York Center
Fri 12:56:18 PM 40.8658 -76.0203 108° East 394 453 15,800 -1,438 Descending New York Center
Fri 12:57:18 PM 40.8306 -75.8722 107° East 389 448 14,300 -1,373 Descending New York Center
Fri 12:58:16 PM 40.7967 -75.7381 108° East 383 441 13,100 -712 Descending New York Center
Fri 12:59:16 PM 40.7700 -75.6264 107° East 370 426 12,900 -98 Descending New York Center
Fri 01:00:18 PM 40.7378 -75.4981 108° East 370 426 12,900  Level New York Center
Fri 01:01:18 PM 40.7117 -75.3706 105° East 370 426 12,900  Level New York Center
Fri 01:02:16 PM 40.6853 -75.2400 105° East 370 426 12,900 -454 Level New York Center
Fri 01:03:17 PM 40.6461 -75.1225 114° Southeast 365 420 12,000 -1,400 Descending New York Center
Fri 01:04:16 PM 40.5769 -75.0172 131° Southeast 350 403 10,100 -1,050 Descending New York Center
Fri 01:05:17 PM 40.5411 -74.9139 115° Southeast 323 372 9,900 -54 Descending New York Center
Fri 01:06:07 PM 40.5167 -74.8333 112° Southeast 286 329 10,000 55 Climbing New York TRACON
Fri 01:07:07 PM 40.4833 -74.7500 118° Southeast 285 328 10,000  Level New York TRACON
Fri 01:08:07 PM 40.4167 -74.7333 169° South 249 287 10,000  Level New York TRACON
Fri 01:09:07 PM 40.3667 -74.6500 128° Southeast 264 304 10,000 -474 Level New York TRACON
Fri 01:10:01 PM 40.3500 -74.5833 108° East 231 266 9,100 -1,000 Descending New York TRACON
Fri 01:11:01 PM 40.3167 -74.5167 123° Southeast 220 253 8,100 -524 Descending New York TRACON
Fri 01:12:07 PM 40.3000 -74.4333 105° East 217 250 8,000 -95 Descending New York TRACON
Fri 01:13:07 PM 40.3333 -74.3667 57° Northeast 217 250 7,900 -500 Descending New York TRACON
Fri 01:14:07 PM 40.3833 -74.3167 37° Northeast 223 257 7,000 -450 Descending New York TRACON
Fri 01:15:07 PM 40.4333 -74.2667 37° Northeast 222 255 7,000  Level New York TRACON
Fri 01:16:07 PM 40.4667 -74.2167 49° Northeast 224 258 7,000 -450 Level New York TRACON
Fri 01:17:07 PM 40.5167 -74.1500 45° Northeast 236 272 6,100 -1,158 Descending New York TRACON
Fri 01:18:01 PM 40.5667 -74.1000 37° Northeast 225 259 4,800 -1,350 Descending New York TRACON
Fri 01:19:07 PM 40.6167 -74.0500 37° Northeast 192 221 3,400 -1,095 Descending New York TRACON
Fri 01:20:07 PM 40.6500 -74.0000 49° Northeast 189 217 2,500 -450 Descending New York TRACON
Fri 01:21:07 PM 40.6833 -73.9667 37° Northeast 197 227 2,500 -50 Level New York TRACON
Fri 01:22:07 PM 40.7167 -73.9000 57° Northeast 188 216 2,400 -550 Descending New York TRACON
Fri 01:23:07 PM 40.7333 -73.8500 66° East 162 186 1,400 -900 Descending New York TRACON
Fri 01:24:07 PM 40.7667 -73.8333 21° North 118 136 600 -800 Descending New York TRACON
Fri 01:26:00 PM 40.7667 -73.8667 30° Northeast  Level FlightAware Approximate
Fri 01:33:00 PM 40.7772 -73.8726 30° Northeast  Level Estimated

Login

Don't have an account? Register now (free) for customized features, flight alerts, and more!